Time;durP1;ratioP1;P1;durP2;ratioP2;P2;SDS_P1;SDS_P2;PMS_P1;PMS_P2;Temp;Humidity;BMP_temperature;BMP_pressure;BME280_temperature;BME280_humidity;BME280_pressure;Samples;Min_cycle;Max_cycle;Signal;HPM_P1;HPM_P2
2023/03/22 00:00:32;;;;;;;51.00;19.83;;;;;;;;;;8419898;28;20054;-83
2023/03/22 00:04:54;;;;;;;52.50;19.55;;;;;;;;;;8432994;28;20503;-82
2023/03/22 00:09:00;;;;;;;49.00;18.98;;;;;;;;;;8415575;28;20044;-81
2023/03/22 00:13:03;;;;;;;55.13;21.98;;;;;;;;;;8432754;28;20101;-82
2023/03/22 00:17:10;;;;;;;56.00;20.00;;;;;;;;;;8425746;28;20036;-83
2023/03/22 00:21:14;;;;;;;56.88;20.17;;;;;;;;;;8409436;28;20507;-85
2023/03/22 00:25:17;;;;;;;53.00;19.92;;;;;;;;;;8432688;28;20051;-82
2023/03/22 00:29:21;;;;;;;51.28;20.42;;;;;;;;;;8432313;28;20408;-83
2023/03/22 00:33:26;;;;;;;65.05;23.73;;;;;;;;;;8432341;28;20442;-84
2023/03/22 00:37:32;;;;;;;72.07;27.58;;;;;;;;;;8432193;28;20079;-81
2023/03/22 00:41:35;;;;;;;53.08;21.55;;;;;;;;;;8422881;28;20054;-82
2023/03/22 00:45:39;;;;;;;61.80;22.40;;;;;;;;;;8427879;28;20127;-82
2023/03/22 00:49:44;;;;;;;55.40;20.90;;;;;;;;;;8408814;28;20052;-83
2023/03/22 00:53:49;;;;;;;55.28;19.08;;;;;;;;;;8426911;28;20071;-83
2023/03/22 00:57:52;;;;;;;43.42;18.88;;;;;;;;;;8431631;28;20040;-82
2023/03/22 01:01:56;;;;;;;73.35;24.60;;;;;;;;;;8414756;28;20560;-83
2023/03/22 01:06:01;;;;;;;48.63;18.95;;;;;;;;;;8421729;28;20399;-82
2023/03/22 01:10:05;;;;;;;43.72;17.95;;;;;;;;;;8431036;28;20047;-83
2023/03/22 01:14:08;;;;;;;80.32;26.23;;;;;;;;;;8431343;28;20373;-83
2023/03/22 01:18:11;;;;;;;75.75;25.63;;;;;;;;;;8430386;28;20046;-82
2023/03/22 01:22:15;;;;;;;58.92;18.80;;;;;;;;;;8430691;28;20052;-82
2023/03/22 01:26:18;;;;;;;53.95;19.90;;;;;;;;;;8429981;28;20052;-82
2023/03/22 01:30:21;;;;;;;50.22;17.85;;;;;;;;;;8430681;28;20044;-81
2023/03/22 01:34:25;;;;;;;50.28;18.95;;;;;;;;;;8412666;28;20054;-82
2023/03/22 01:38:29;;;;;;;42.20;16.83;;;;;;;;;;8430048;28;20506;-82
2023/03/22 01:42:32;;;;;;;54.65;18.65;;;;;;;;;;8429779;28;20178;-82
2023/03/22 01:46:35;;;;;;;43.38;15.80;;;;;;;;;;8430014;28;20048;-83
2023/03/22 01:50:41;;;;;;;43.75;16.90;;;;;;;;;;8429529;28;20448;-84
2023/03/22 01:54:49;;;;;;;40.97;15.23;;;;;;;;;;8429897;28;20097;-82
2023/03/22 01:58:54;;;;;;;71.30;26.65;;;;;;;;;;8429441;28;20044;-83
2023/03/22 02:02:57;;;;;;;196.90;47.70;;;;;;;;;;8405293;28;20041;-83
2023/03/22 02:07:08;;;;;;;38.53;16.25;;;;;;;;;;8427459;28;20040;-83
2023/03/22 02:11:16;;;;;;;63.50;21.98;;;;;;;;;;8411715;28;20491;-82
2023/03/22 02:15:24;;;;;;;49.22;16.65;;;;;;;;;;8403000;28;20073;-82
2023/03/22 02:20:09;;;;;;;34.78;14.57;;;;;;;;;;8429475;28;20492;-83
2023/03/22 02:24:45;;;;;;;150.20;55.28;;;;;;;;;;8413317;28;20048;-83
2023/03/22 02:28:54;;;;;;;57.10;27.42;;;;;;;;;;8424022;28;20051;-82
2023/03/22 02:33:24;;;;;;;61.65;30.40;;;;;;;;;;8397922;28;20119;-83
2023/03/22 02:37:56;;;;;;;110.07;25.55;;;;;;;;;;8428009;28;20052;-82
2023/03/22 02:42:25;;;;;;;37.60;15.35;;;;;;;;;;8428889;28;20484;-81
2023/03/22 02:46:33;;;;;;;34.85;14.55;;;;;;;;;;8428728;28;20442;-81
2023/03/22 02:50:42;;;;;;;34.25;13.20;;;;;;;;;;8427680;28;20056;-82
2023/03/22 02:54:50;;;;;;;32.67;12.88;;;;;;;;;;8428912;28;20074;-82
2023/03/22 02:58:58;;;;;;;40.05;14.45;;;;;;;;;;8428356;28;20040;-82
2023/03/22 03:03:10;;;;;;;37.67;14.00;;;;;;;;;;8428349;28;20109;-82
2023/03/22 03:07:16;;;;;;;34.95;13.18;;;;;;;;;;8428529;28;20044;-82
2023/03/22 03:11:20;;;;;;;59.70;24.13;;;;;;;;;;8432686;28;20052;-82
2023/03/22 03:15:24;;;;;;;56.35;22.98;;;;;;;;;;8428728;28;20047;-82
2023/03/22 03:19:35;;;;;;;38.63;15.30;;;;;;;;;;8434777;28;20066;-82
2023/03/22 03:23:49;;;;;;;402.77;98.18;;;;;;;;;;8434615;28;20599;-82
2023/03/22 03:28:02;;;;;;;477.55;121.80;;;;;;;;;;8434379;28;20084;-81
2023/03/22 03:32:10;;;;;;;638.83;183.43;;;;;;;;;;8434311;28;20044;-83
2023/03/22 03:36:17;;;;;;;401.73;100.63;;;;;;;;;;8433909;28;20051;-82
2023/03/22 03:40:25;;;;;;;46.67;16.80;;;;;;;;;;8434061;28;20121;-82
2023/03/22 03:44:30;;;;;;;37.60;15.00;;;;;;;;;;8433628;28;20039;-82
2023/03/22 03:48:36;;;;;;;37.38;14.75;;;;;;;;;;8433862;28;20055;-82
2023/03/22 03:52:39;;;;;;;32.08;13.45;;;;;;;;;;8434070;28;20544;-82
2023/03/22 03:56:42;;;;;;;36.05;15.07;;;;;;;;;;8419909;28;20499;-81
2023/03/22 04:00:46;;;;;;;44.63;17.65;;;;;;;;;;8433177;28;20093;-82
2023/03/22 04:04:50;;;;;;;59.47;23.52;;;;;;;;;;8432845;28;20048;-81
2023/03/22 04:08:55;;;;;;;55.25;22.75;;;;;;;;;;8432932;28;20044;-83
2023/03/22 04:12:58;;;;;;;81.25;32.58;;;;;;;;;;8432814;28;20051;-82
2023/03/22 04:17:01;;;;;;;48.80;19.67;;;;;;;;;;8432626;28;20484;-82
2023/03/22 04:21:05;;;;;;;63.42;25.40;;;;;;;;;;8419299;28;20052;-83
2023/03/22 04:25:11;;;;;;;61.67;25.50;;;;;;;;;;8432410;28;20124;-82
2023/03/22 04:29:14;;;;;;;55.03;22.63;;;;;;;;;;8431826;28;20040;-82
2023/03/22 04:33:18;;;;;;;49.88;15.75;;;;;;;;;;8432329;28;20044;-82
2023/03/22 04:37:23;;;;;;;39.63;16.45;;;;;;;;;;8432394;28;20055;-82
2023/03/22 04:41:26;;;;;;;36.85;14.52;;;;;;;;;;8418788;28;20131;-81
2023/03/22 04:45:31;;;;;;;25.30;10.07;;;;;;;;;;8431845;28;20054;-82
2023/03/22 04:49:34;;;;;;;24.38;9.48;;;;;;;;;;8405661;28;20135;-83
2023/03/22 04:53:38;;;;;;;28.63;10.80;;;;;;;;;;8431486;28;20068;-81
2023/03/22 04:57:42;;;;;;;28.73;9.77;;;;;;;;;;8410928;28;20043;-82
2023/03/22 05:01:44;;;;;;;46.05;19.00;;;;;;;;;;8393601;28;20101;-81
2023/03/22 05:05:51;;;;;;;63.63;26.45;;;;;;;;;;8405240;28;20479;-80
2023/03/22 05:09:55;;;;;;;44.08;20.63;;;;;;;;;;8431181;28;20048;-81
2023/03/22 05:13:58;;;;;;;43.72;15.93;;;;;;;;;;8430904;28;20044;-82
2023/03/22 05:18:01;;;;;;;44.85;17.65;;;;;;;;;;8430911;28;20070;-81
2023/03/22 05:22:04;;;;;;;39.53;16.60;;;;;;;;;;8430629;28;20051;-82
2023/03/22 05:26:09;;;;;;;38.53;19.80;;;;;;;;;;8430898;28;20536;-81
2023/03/22 05:30:12;;;;;;;26.30;11.20;;;;;;;;;;8430880;28;20089;-82
2023/03/22 05:34:15;;;;;;;31.08;12.15;;;;;;;;;;8431139;28;20086;-83
2023/03/22 05:38:18;;;;;;;24.88;11.68;;;;;;;;;;8435511;28;20127;-82
2023/03/22 05:42:22;;;;;;;40.92;16.63;;;;;;;;;;8413467;28;20055;-85
2023/03/22 05:46:26;;;;;;;39.83;18.73;;;;;;;;;;8413922;28;20090;-86
2023/03/22 05:50:29;;;;;;;27.48;13.93;;;;;;;;;;8424707;28;20067;-85
2023/03/22 05:54:32;;;;;;;30.17;16.20;;;;;;;;;;8445521;28;20051;-84
2023/03/22 05:58:38;;;;;;;43.22;26.55;;;;;;;;;;8455368;28;20178;-84
2023/03/22 06:02:41;;;;;;;44.83;29.25;;;;;;;;;;8455199;28;20538;-83
2023/03/22 06:06:44;;;;;;;44.50;29.17;;;;;;;;;;8448379;28;20036;-84
2023/03/22 06:10:49;;;;;;;38.53;25.70;;;;;;;;;;8431562;28;20074;-83
2023/03/22 06:14:54;;;;;;;35.55;26.02;;;;;;;;;;8419697;28;20048;-83
2023/03/22 06:18:57;;;;;;;45.95;31.08;;;;;;;;;;8419123;28;20036;-84
2023/03/22 06:23:00;;;;;;;28.20;15.25;;;;;;;;;;8395394;28;20119;-86
2023/03/22 06:27:03;;;;;;;28.50;12.88;;;;;;;;;;8408416;28;20465;-85
2023/03/22 06:31:09;;;;;;;30.73;15.60;;;;;;;;;;8425445;28;20048;-85
2023/03/22 06:35:12;;;;;;;40.63;32.30;;;;;;;;;;8415987;28;20198;-84
2023/03/22 06:39:15;;;;;;;91.60;47.25;;;;;;;;;;8397485;28;20048;-84
2023/03/22 06:43:17;;;;;;;31.77;17.98;;;;;;;;;;8406936;28;20410;-85
2023/03/22 06:47:22;;;;;;;29.23;15.55;;;;;;;;;;8401174;28;20097;-86
2023/03/22 06:51:25;;;;;;;23.38;12.60;;;;;;;;;;8432012;28;20047;-83
2023/03/22 06:55:32;;;;;;;26.83;12.88;;;;;;;;;;8435567;28;20059;-84
2023/03/22 06:59:34;;;;;;;16.85;8.15;;;;;;;;;;8435208;28;20044;-83
2023/03/22 07:03:39;;;;;;;23.13;11.50;;;;;;;;;;8434924;28;20082;-84
2023/03/22 07:07:42;;;;;;;31.65;15.15;;;;;;;;;;8435255;28;20040;-83
2023/03/22 07:11:44;;;;;;;31.38;14.95;;;;;;;;;;8434593;28;20052;-84
2023/03/22 07:15:47;;;;;;;33.35;13.55;;;;;;;;;;8419248;28;20035;-84
2023/03/22 07:19:52;;;;;;;35.97;16.83;;;;;;;;;;8434877;28;20490;-85
2023/03/22 07:23:55;;;;;;;31.95;16.10;;;;;;;;;;8434487;28;20048;-85
2023/03/22 07:28:00;;;;;;;32.35;15.70;;;;;;;;;;8433892;28;20803;-84
2023/03/22 07:32:03;;;;;;;32.17;14.10;;;;;;;;;;8434774;28;20040;-85
2023/03/22 07:36:09;;;;;;;30.88;15.27;;;;;;;;;;8433738;28;20040;-85
2023/03/22 07:40:13;;;;;;;34.38;15.75;;;;;;;;;;8434681;28;20047;-85
2023/03/22 07:44:16;;;;;;;34.50;16.55;;;;;;;;;;8420244;28;20399;-85
2023/03/22 07:48:20;;;;;;;22.55;10.50;;;;;;;;;;8434061;28;20415;-85
2023/03/22 07:52:24;;;;;;;19.13;9.10;;;;;;;;;;8433349;28;20048;-86
2023/03/22 07:56:27;;;;;;;35.90;16.70;;;;;;;;;;8433596;28;20479;-84
2023/03/22 08:00:30;;;;;;;39.95;17.02;;;;;;;;;;8429040;28;20048;-84
2023/03/22 08:04:34;;;;;;;35.72;16.90;;;;;;;;;;8411036;28;20483;-84
2023/03/22 08:08:39;;;;;;;40.67;17.92;;;;;;;;;;8432534;28;20096;-85
2023/03/22 08:12:41;;;;;;;36.72;16.40;;;;;;;;;;8432840;28;20089;-85
2023/03/22 08:16:45;;;;;;;36.63;16.98;;;;;;;;;;8418937;28;20502;-85
2023/03/22 08:20:53;;;;;;;25.05;11.75;;;;;;;;;;8432750;28;20110;-86
2023/03/22 08:24:57;;;;;;;33.65;15.30;;;;;;;;;;8414630;28;20051;-85
2023/03/22 08:29:00;;;;;;;29.15;14.15;;;;;;;;;;8424171;28;20044;-84
2023/03/22 08:33:05;;;;;;;17.63;8.82;;;;;;;;;;8432385;28;20103;-84
2023/03/22 08:37:09;;;;;;;38.83;14.40;;;;;;;;;;8432225;28;20135;-85
2023/03/22 08:41:14;;;;;;;30.40;13.95;;;;;;;;;;8432421;28;20116;-84
2023/03/22 08:45:17;;;;;;;24.98;12.15;;;;;;;;;;8418874;28;20051;-84
2023/03/22 08:49:20;;;;;;;22.40;11.07;;;;;;;;;;8431649;28;20056;-84
2023/03/22 08:53:23;;;;;;;25.02;12.50;;;;;;;;;;8431399;28;20058;-85
2023/03/22 08:57:28;;;;;;;17.95;8.07;;;;;;;;;;8431303;28;20047;-84
2023/03/22 09:01:31;;;;;;;25.10;12.00;;;;;;;;;;8431381;28;20131;-85
2023/03/22 09:05:34;;;;;;;27.48;12.20;;;;;;;;;;8431420;28;20051;-84
2023/03/22 09:09:37;;;;;;;24.65;13.20;;;;;;;;;;8431606;28;20048;-85
2023/03/22 09:13:41;;;;;;;22.88;11.18;;;;;;;;;;8430540;28;20066;-85
2023/03/22 09:17:44;;;;;;;21.58;10.73;;;;;;;;;;8431180;28;20490;-84
2023/03/22 09:21:48;;;;;;;21.13;11.20;;;;;;;;;;8430915;28;20044;-84
2023/03/22 09:25:51;;;;;;;25.33;12.65;;;;;;;;;;8430429;28;20093;-84
2023/03/22 09:29:56;;;;;;;20.25;10.90;;;;;;;;;;8430236;28;20036;-84
2023/03/22 09:33:59;;;;;;;25.92;11.98;;;;;;;;;;8429967;28;20048;-83
2023/03/22 09:38:02;;;;;;;26.42;11.10;;;;;;;;;;8430417;28;20052;-84
2023/03/22 09:42:11;;;;;;;23.80;11.85;;;;;;;;;;8430396;28;20048;-84
2023/03/22 09:46:19;;;;;;;13.10;7.05;;;;;;;;;;8430226;28;20048;-84
2023/03/22 09:50:25;;;;;;;23.23;11.05;;;;;;;;;;8429821;28;20048;-83
2023/03/22 09:54:32;;;;;;;19.95;10.05;;;;;;;;;;8430078;28;20119;-85
2023/03/22 09:58:43;;;;;;;25.00;12.15;;;;;;;;;;8396208;28;20080;-85
2023/03/22 10:03:02;;;;;;;21.92;11.25;;;;;;;;;;8396338;28;20069;-85
2023/03/22 10:07:13;;;;;;;24.60;11.55;;;;;;;;;;8428975;28;20510;-84
2023/03/22 10:11:25;;;;;;;26.15;11.63;;;;;;;;;;8429376;28;20040;-85
2023/03/22 10:15:33;;;;;;;21.15;10.13;;;;;;;;;;8429409;28;20048;-83
2023/03/22 10:19:49;;;;;;;21.10;10.57;;;;;;;;;;8428695;28;20052;-86
2023/03/22 10:23:55;;;;;;;22.50;10.32;;;;;;;;;;8415569;28;20075;-84
2023/03/22 10:27:59;;;;;;;18.02;9.98;;;;;;;;;;8429117;28;20541;-84
2023/03/22 10:32:14;;;;;;;18.27;9.45;;;;;;;;;;8428990;28;20043;-85
2023/03/22 10:36:23;;;;;;;17.60;9.60;;;;;;;;;;8428447;28;20048;-82
2023/03/22 10:40:28;;;;;;;19.65;9.55;;;;;;;;;;8428633;28;20119;-84
2023/03/22 10:44:35;;;;;;;18.90;8.02;;;;;;;;;;8428501;28;20514;-84
2023/03/22 10:48:43;;;;;;;14.80;8.68;;;;;;;;;;8428106;28;20056;-83
2023/03/22 10:52:52;;;;;;;16.88;10.18;;;;;;;;;;8410607;28;20036;-84
2023/03/22 10:56:55;;;;;;;22.58;9.25;;;;;;;;;;8427788;28;20407;-83
2023/03/22 11:01:00;;;;;;;16.92;10.07;;;;;;;;;;8428329;28;20036;-83
2023/03/22 11:05:05;;;;;;;14.43;7.32;;;;;;;;;;8414403;28;20043;-82
2023/03/22 11:09:16;;;;;;;14.57;8.80;;;;;;;;;;8428312;28;20048;-84
2023/03/22 11:13:21;;;;;;;15.23;8.10;;;;;;;;;;8428540;28;20481;-84
2023/03/22 11:17:25;;;;;;;16.02;9.68;;;;;;;;;;8428226;28;20052;-83
2023/03/22 11:21:32;;;;;;;39.65;23.17;;;;;;;;;;8428228;28;20491;-83
2023/03/22 11:25:43;;;;;;;17.23;9.82;;;;;;;;;;8427924;28;20052;-83
2023/03/22 11:29:49;;;;;;;17.10;9.95;;;;;;;;;;8427934;28;20044;-84
2023/03/22 11:33:57;;;;;;;17.63;9.75;;;;;;;;;;8428598;28;20048;-83
2023/03/22 11:38:01;;;;;;;15.75;9.63;;;;;;;;;;8431377;28;20377;-83
2023/03/22 11:42:06;;;;;;;18.20;10.60;;;;;;;;;;8433651;28;20055;-83
2023/03/22 11:46:11;;;;;;;17.77;9.50;;;;;;;;;;8433257;28;20051;-83
2023/03/22 11:50:28;;;;;;;14.80;9.02;;;;;;;;;;8433187;28;20381;-83
2023/03/22 11:54:34;;;;;;;18.05;9.07;;;;;;;;;;8433836;28;20408;-83
2023/03/22 11:59:07;;;;;;;14.70;8.88;;;;;;;;;;8431873;28;20488;-83
2023/03/22 12:03:16;;;;;;;17.45;9.07;;;;;;;;;;8391259;28;20056;-83
2023/03/22 12:07:23;;;;;;;14.50;8.05;;;;;;;;;;8433513;28;20042;-83
2023/03/22 12:11:30;;;;;;;14.68;8.52;;;;;;;;;;8433293;28;20044;-83
2023/03/22 12:15:38;;;;;;;21.63;9.27;;;;;;;;;;8432847;28;20048;-84
2023/03/22 12:19:58;;;;;;;12.27;7.53;;;;;;;;;;8419331;28;20400;-83
2023/03/22 12:24:03;;;;;;;13.48;7.15;;;;;;;;;;8432683;28;20044;-84
2023/03/22 12:28:08;;;;;;;29.58;16.65;;;;;;;;;;8414453;28;20036;-85
2023/03/22 12:32:18;;;;;;;11.57;7.82;;;;;;;;;;8431931;28;20066;-83
2023/03/22 12:36:25;;;;;;;13.70;8.10;;;;;;;;;;8432149;28;20100;-85
2023/03/22 12:40:32;;;;;;;13.10;7.70;;;;;;;;;;8432017;28;20075;-84
2023/03/22 12:44:40;;;;;;;14.10;8.23;;;;;;;;;;8431442;28;20047;-83
2023/03/22 12:48:49;;;;;;;22.33;12.70;;;;;;;;;;8430644;28;20142;-85
2023/03/22 12:52:55;;;;;;;14.90;8.85;;;;;;;;;;8405705;28;20035;-86
2023/03/22 12:56:58;;;;;;;14.77;7.35;;;;;;;;;;8431557;28;20399;-85
2023/03/22 13:01:16;;;;;;;18.15;9.80;;;;;;;;;;8431832;28;20044;-85
2023/03/22 13:05:21;;;;;;;14.55;9.05;;;;;;;;;;8431369;28;20499;-86
2023/03/22 13:09:39;;;;;;;15.20;9.13;;;;;;;;;;8431429;28;20122;-84
2023/03/22 13:13:44;;;;;;;17.30;9.85;;;;;;;;;;8413034;28;20170;-84
2023/03/22 13:17:49;;;;;;;19.17;11.45;;;;;;;;;;8424016;28;20109;-85
2023/03/22 13:22:15;;;;;;;17.70;9.95;;;;;;;;;;8430334;28;20040;-85
2023/03/22 13:26:19;;;;;;;14.68;8.90;;;;;;;;;;8430720;28;20527;-84
2023/03/22 13:30:26;;;;;;;18.02;10.20;;;;;;;;;;8430987;28;20412;-86
2023/03/22 13:34:36;;;;;;;20.02;11.48;;;;;;;;;;8428091;28;20072;-82
2023/03/22 13:38:42;;;;;;;26.20;17.30;;;;;;;;;;8420675;28;20044;-85
2023/03/22 13:42:45;;;;;;;22.90;13.35;;;;;;;;;;8403065;28;20040;-85
2023/03/22 13:46:51;;;;;;;19.75;11.32;;;;;;;;;;8429992;28;20124;-85
2023/03/22 13:50:55;;;;;;;19.55;11.38;;;;;;;;;;8429572;28;20454;-85
2023/03/22 13:54:59;;;;;;;21.60;12.10;;;;;;;;;;8430266;28;20131;-82
2023/03/22 13:59:04;;;;;;;28.45;19.65;;;;;;;;;;8429277;28;20484;-84
2023/03/22 14:03:14;;;;;;;20.65;11.18;;;;;;;;;;8430052;28;20060;-85
2023/03/22 14:07:24;;;;;;;18.05;10.45;;;;;;;;;;8429237;28;20048;-84
2023/03/22 14:11:34;;;;;;;19.27;11.35;;;;;;;;;;8429528;28;20055;-85
2023/03/22 14:15:41;;;;;;;16.70;10.55;;;;;;;;;;8415890;28;20119;-83
2023/03/22 14:19:44;;;;;;;17.95;11.52;;;;;;;;;;8428478;28;20476;-85
2023/03/22 14:23:51;;;;;;;17.35;9.20;;;;;;;;;;8386800;28;20056;-86
2023/03/22 14:27:56;;;;;;;18.67;10.52;;;;;;;;;;8382766;28;20045;-84
2023/03/22 14:32:00;;;;;;;20.20;9.90;;;;;;;;;;8399494;28;20047;-84
2023/03/22 14:36:06;;;;;;;57.58;39.75;;;;;;;;;;8428828;28;20046;-85
2023/03/22 14:40:17;;;;;;;19.55;12.18;;;;;;;;;;8428637;28;20132;-83
2023/03/22 14:44:22;;;;;;;14.93;9.57;;;;;;;;;;8429154;28;20044;-84
2023/03/22 14:48:25;;;;;;;17.35;9.60;;;;;;;;;;8428177;28;20056;-85
2023/03/22 14:52:31;;;;;;;18.80;10.15;;;;;;;;;;8428722;28;20078;-85
2023/03/22 14:56:39;;;;;;;18.67;9.50;;;;;;;;;;8428789;28;20041;-85
2023/03/22 15:00:43;;;;;;;18.55;10.20;;;;;;;;;;8389999;28;20048;-85
2023/03/22 15:04:46;;;;;;;21.45;12.88;;;;;;;;;;8427965;28;20048;-84
2023/03/22 15:08:49;;;;;;;22.70;14.15;;;;;;;;;;8428657;28;20380;-83
2023/03/22 15:12:54;;;;;;;21.05;12.75;;;;;;;;;;8432320;28;20483;-83
2023/03/22 15:16:58;;;;;;;75.85;38.75;;;;;;;;;;8434931;28;20046;-85
2023/03/22 15:21:03;;;;;;;45.10;26.10;;;;;;;;;;8416510;28;20403;-83
2023/03/22 15:25:13;;;;;;;76.15;35.15;;;;;;;;;;8434403;28;20047;-85
2023/03/22 15:29:15;;;;;;;32.15;16.90;;;;;;;;;;8416212;28;20076;-83
2023/03/22 15:33:26;;;;;;;40.58;20.90;;;;;;;;;;8434344;28;20127;-84
2023/03/22 15:37:32;;;;;;;40.75;21.67;;;;;;;;;;8433824;28;20051;-83
2023/03/22 15:41:39;;;;;;;53.40;27.70;;;;;;;;;;8434252;28;20054;-84
2023/03/22 15:45:44;;;;;;;44.45;24.35;;;;;;;;;;8433861;28;20048;-83
2023/03/22 15:49:51;;;;;;;36.65;23.52;;;;;;;;;;8433425;28;20060;-83
2023/03/22 15:54:03;;;;;;;22.40;13.45;;;;;;;;;;8433820;28;20096;-85
2023/03/22 15:58:17;;;;;;;24.77;13.93;;;;;;;;;;8433725;28;20036;-85
2023/03/22 16:02:27;;;;;;;25.45;14.13;;;;;;;;;;8433352;28;20074;-84
2023/03/22 16:06:31;;;;;;;23.00;13.63;;;;;;;;;;8433927;28;20052;-83
2023/03/22 16:10:36;;;;;;;23.13;12.73;;;;;;;;;;8432970;28;20051;-83
2023/03/22 16:14:41;;;;;;;20.88;11.38;;;;;;;;;;8432805;28;20093;-83
2023/03/22 16:18:44;;;;;;;18.42;10.05;;;;;;;;;;8432603;28;20040;-84
2023/03/22 16:22:50;;;;;;;22.67;11.82;;;;;;;;;;8432281;28;20072;-83
2023/03/22 16:26:54;;;;;;;20.17;10.73;;;;;;;;;;8407940;28;20040;-84
2023/03/22 16:30:58;;;;;;;19.17;10.80;;;;;;;;;;8431906;28;20051;-83
2023/03/22 16:35:01;;;;;;;16.70;9.30;;;;;;;;;;8432190;28;20126;-84
2023/03/22 16:39:05;;;;;;;16.02;9.68;;;;;;;;;;8432257;28;20056;-86
2023/03/22 16:43:09;;;;;;;35.67;26.10;;;;;;;;;;8432271;28;20065;-85
2023/03/22 16:47:14;;;;;;;27.85;20.73;;;;;;;;;;8431764;28;20052;-84
2023/03/22 16:51:23;;;;;;;30.05;19.05;;;;;;;;;;8434258;28;20127;-84
2023/03/22 16:55:30;;;;;;;34.42;23.52;;;;;;;;;;8440542;28;20047;-84
2023/03/22 16:59:33;;;;;;;18.77;11.75;;;;;;;;;;8435226;28;20054;-85
2023/03/22 17:03:36;;;;;;;32.47;20.10;;;;;;;;;;8432739;28;20435;-83
2023/03/22 17:07:39;;;;;;;24.33;15.35;;;;;;;;;;8431713;28;20052;-83
2023/03/22 17:11:43;;;;;;;19.50;11.68;;;;;;;;;;8431379;28;20240;-84
2023/03/22 17:15:48;;;;;;;22.75;13.38;;;;;;;;;;8418402;28;20381;-84
2023/03/22 17:19:51;;;;;;;23.98;14.55;;;;;;;;;;8431590;28;20193;-83
2023/03/22 17:23:54;;;;;;;25.27;14.68;;;;;;;;;;8431002;28;20794;-84
2023/03/22 17:28:01;;;;;;;20.48;10.68;;;;;;;;;;8416459;28;20044;-85
2023/03/22 17:32:06;;;;;;;25.02;15.15;;;;;;;;;;8430737;28;20046;-83
2023/03/22 17:36:11;;;;;;;34.25;18.60;;;;;;;;;;8429942;28;20040;-84
2023/03/22 17:40:16;;;;;;;30.00;17.38;;;;;;;;;;8430424;28;20051;-85
2023/03/22 17:44:22;;;;;;;30.60;17.25;;;;;;;;;;8429783;28;20072;-84
2023/03/22 17:48:27;;;;;;;29.15;16.70;;;;;;;;;;8429720;28;20131;-84
2023/03/22 17:52:30;;;;;;;33.95;18.25;;;;;;;;;;8430121;28;20067;-83
2023/03/22 17:56:35;;;;;;;24.42;12.10;;;;;;;;;;8429542;28;20507;-84
2023/03/22 18:00:39;;;;;;;19.83;10.65;;;;;;;;;;8429645;28;20773;-84
2023/03/22 18:04:43;;;;;;;16.75;9.27;;;;;;;;;;8429747;28;20135;-83
2023/03/22 18:08:46;;;;;;;16.52;8.70;;;;;;;;;;8429249;28;20036;-83
2023/03/22 18:12:51;;;;;;;18.90;8.98;;;;;;;;;;8429867;28;20058;-84
2023/03/22 18:16:56;;;;;;;19.08;10.45;;;;;;;;;;8429510;28;20556;-84
2023/03/22 18:21:03;;;;;;;25.95;13.20;;;;;;;;;;8429176;28;20044;-84
2023/03/22 18:25:09;;;;;;;27.45;13.68;;;;;;;;;;8429081;28;20490;-83
2023/03/22 18:29:15;;;;;;;24.70;13.25;;;;;;;;;;8411130;28;20052;-86
2023/03/22 18:33:22;;;;;;;30.38;15.32;;;;;;;;;;8355477;28;20442;-84
2023/03/22 18:37:26;;;;;;;34.17;16.35;;;;;;;;;;8427623;28;20479;-84
2023/03/22 18:41:32;;;;;;;31.40;14.80;;;;;;;;;;8416753;28;20054;-84
2023/03/22 18:45:38;;;;;;;22.13;12.07;;;;;;;;;;8427749;28;20044;-84
2023/03/22 18:49:45;;;;;;;40.47;17.85;;;;;;;;;;8428618;28;20052;-85
2023/03/22 18:53:50;;;;;;;52.92;22.23;;;;;;;;;;8428352;28;20054;-84
2023/03/22 18:57:54;;;;;;;522.20;237.70;;;;;;;;;;8428578;28;20052;-84
2023/03/22 19:01:59;;;;;;;247.27;104.28;;;;;;;;;;8427701;28;20506;-83
2023/03/22 19:06:08;;;;;;;203.35;93.65;;;;;;;;;;8428056;28;20075;-83
2023/03/22 19:10:14;;;;;;;22.33;12.55;;;;;;;;;;8428088;28;20373;-84
2023/03/22 19:14:18;;;;;;;216.98;97.00;;;;;;;;;;8428000;28;20480;-83
2023/03/22 19:18:24;;;;;;;102.88;41.33;;;;;;;;;;8409310;28;20060;-85
2023/03/22 19:22:32;;;;;;;84.15;40.63;;;;;;;;;;8428260;28;20048;-84
2023/03/22 19:26:43;;;;;;;74.30;40.17;;;;;;;;;;8408713;28;20051;-84
2023/03/22 19:30:47;;;;;;;52.80;25.15;;;;;;;;;;8420870;28;20048;-84
2023/03/22 19:34:52;;;;;;;41.83;22.27;;;;;;;;;;8427346;28;20491;-84
2023/03/22 19:39:00;;;;;;;86.60;39.83;;;;;;;;;;8427722;28;20044;-84
2023/03/22 19:43:05;;;;;;;204.77;83.70;;;;;;;;;;8401810;28;20047;-83
2023/03/22 19:47:10;;;;;;;73.82;32.75;;;;;;;;;;8427327;28;20044;-84
2023/03/22 19:51:15;;;;;;;44.05;20.58;;;;;;;;;;8404375;28;20059;-82
2023/03/22 19:55:22;;;;;;;67.93;31.88;;;;;;;;;;8403170;28;20493;-84
2023/03/22 19:59:27;;;;;;;99.80;35.67;;;;;;;;;;8412370;28;20056;-85
2023/03/22 20:03:31;;;;;;;37.47;17.25;;;;;;;;;;8403626;28;20075;-81
2023/03/22 20:07:43;;;;;;;50.50;21.67;;;;;;;;;;8397813;28;20040;-81
2023/03/22 20:11:50;;;;;;;152.25;55.65;;;;;;;;;;8428885;28;20513;-82
2023/03/22 20:15:55;;;;;;;70.90;28.05;;;;;;;;;;8410344;28;20127;-82
2023/03/22 20:20:00;;;;;;;44.08;20.98;;;;;;;;;;8411879;28;20040;-81
2023/03/22 20:24:05;;;;;;;38.72;17.45;;;;;;;;;;8420156;28;20044;-81
2023/03/22 20:28:11;;;;;;;33.08;17.35;;;;;;;;;;8419231;28;20044;-81
2023/03/22 20:32:16;;;;;;;32.88;17.13;;;;;;;;;;8392662;28;20065;-84
2023/03/22 20:36:21;;;;;;;37.17;15.73;;;;;;;;;;8393006;28;20074;-81
2023/03/22 20:40:29;;;;;;;30.70;15.75;;;;;;;;;;8406660;28;20055;-88
2023/03/22 20:44:34;;;;;;;33.72;16.80;;;;;;;;;;8385484;28;20047;-82
2023/03/22 20:48:39;;;;;;;33.72;18.10;;;;;;;;;;8418154;28;20059;-82
2023/03/22 20:52:44;;;;;;;37.30;18.63;;;;;;;;;;8424592;28;20055;-82
2023/03/22 20:56:48;;;;;;;28.45;14.98;;;;;;;;;;8429487;28;20044;-81
2023/03/22 21:00:54;;;;;;;43.83;22.50;;;;;;;;;;8427731;28;20250;-80
2023/03/22 21:04:58;;;;;;;214.43;88.30;;;;;;;;;;8431393;28;20511;-81
2023/03/22 21:09:01;;;;;;;35.75;18.33;;;;;;;;;;8427143;28;20064;-82
2023/03/22 21:13:05;;;;;;;123.88;45.40;;;;;;;;;;8421237;28;20051;-82
2023/03/22 21:17:12;;;;;;;297.50;85.72;;;;;;;;;;8430820;28;20476;-84
2023/03/22 21:21:16;;;;;;;46.70;23.02;;;;;;;;;;8430573;28;20102;-83
2023/03/22 21:25:26;;;;;;;31.77;17.05;;;;;;;;;;8431453;28;20434;-82
2023/03/22 21:29:29;;;;;;;34.88;16.75;;;;;;;;;;8414552;28;20048;-82
2023/03/22 21:33:35;;;;;;;67.32;31.65;;;;;;;;;;8415222;28;20044;-84
2023/03/22 21:37:40;;;;;;;92.15;30.40;;;;;;;;;;8426770;28;20071;-82
2023/03/22 21:41:44;;;;;;;62.90;28.13;;;;;;;;;;8430387;28;20408;-85
2023/03/22 21:45:47;;;;;;;78.40;28.90;;;;;;;;;;8430273;28;20040;-85
2023/03/22 21:49:54;;;;;;;39.92;17.95;;;;;;;;;;8419753;28;20063;-85
2023/03/22 21:53:58;;;;;;;41.65;19.05;;;;;;;;;;8416486;28;20051;-83
2023/03/22 21:58:04;;;;;;;158.57;57.70;;;;;;;;;;8393408;28;20114;-86
2023/03/22 22:02:13;;;;;;;40.72;18.67;;;;;;;;;;8415079;28;20043;-86
2023/03/22 22:06:18;;;;;;;36.55;16.67;;;;;;;;;;8421632;28;20131;-84
2023/03/22 22:10:21;;;;;;;48.03;21.65;;;;;;;;;;8409258;28;20048;-82
2023/03/22 22:14:24;;;;;;;34.80;17.23;;;;;;;;;;8429201;28;20105;-84
2023/03/22 22:18:29;;;;;;;66.10;32.35;;;;;;;;;;8398023;28;20081;-82
2023/03/22 22:22:33;;;;;;;95.97;47.20;;;;;;;;;;8408346;28;20135;-83
2023/03/22 22:26:36;;;;;;;61.30;33.85;;;;;;;;;;8385628;28;20040;-84
2023/03/22 22:30:39;;;;;;;44.38;21.95;;;;;;;;;;8418519;28;20044;-81
2023/03/22 22:34:43;;;;;;;51.08;25.02;;;;;;;;;;8386700;28;20068;-81
2023/03/22 22:38:48;;;;;;;149.70;77.43;;;;;;;;;;8408802;28;20385;-84
2023/03/22 22:42:51;;;;;;;42.53;21.90;;;;;;;;;;8407512;28;20067;-83
2023/03/22 22:46:54;;;;;;;40.47;20.15;;;;;;;;;;8415742;28;20117;-81
2023/03/22 22:51:02;;;;;;;99.40;32.20;;;;;;;;;;8398212;28;20519;-85
2023/03/22 22:55:09;;;;;;;63.97;24.83;;;;;;;;;;8396048;28;20049;-82
2023/03/22 22:59:11;;;;;;;288.48;97.55;;;;;;;;;;8387300;28;20568;-82
2023/03/22 23:03:14;;;;;;;117.10;43.10;;;;;;;;;;8413562;28;20048;-81
2023/03/22 23:07:17;;;;;;;42.53;20.25;;;;;;;;;;8413562;28;20093;-81
2023/03/22 23:11:24;;;;;;;44.35;19.80;;;;;;;;;;8408477;28;20036;-83
2023/03/22 23:15:27;;;;;;;51.45;21.65;;;;;;;;;;8406390;28;20054;-83
2023/03/22 23:19:30;;;;;;;40.92;19.38;;;;;;;;;;8393600;28;20038;-82
2023/03/22 23:23:32;;;;;;;51.88;23.42;;;;;;;;;;8389418;28;20045;-81
2023/03/22 23:27:36;;;;;;;54.20;22.77;;;;;;;;;;8415535;28;20051;-80
2023/03/22 23:31:43;;;;;;;53.67;23.38;;;;;;;;;;8402059;28;20044;-81
2023/03/22 23:35:49;;;;;;;47.72;21.60;;;;;;;;;;8433816;28;20446;-81
2023/03/22 23:39:52;;;;;;;45.28;21.92;;;;;;;;;;8421181;28;20052;-83
2023/03/22 23:43:57;;;;;;;45.80;21.92;;;;;;;;;;8428398;28;20113;-82
2023/03/22 23:48:00;;;;;;;47.10;24.15;;;;;;;;;;8433598;28;20055;-85
2023/03/22 23:52:03;;;;;;;64.45;27.05;;;;;;;;;;8433389;28;20052;-81